Time;durP1;ratioP1;P1;durP2;ratioP2;P2;SDS_P1;SDS_P2;PMS_P1;PMS_P2;Temp;Humidity;BMP_temperature;BMP_pressure;BME280_temperature;BME280_humidity;BME280_pressure;Samples;Min_cycle;Max_cycle;Signal;HPM_P1;HPM_P2
2023/02/10 04:33:05;;;;;;;11.20;2.50;;;11.70;58.40;;;;;;5499736;23;20403;-72
2023/02/10 04:35:31;;;;;;;9.82;2.00;;;11.50;59.50;;;;;;4862053;29;20373;-75
2023/02/10 04:37:58;;;;;;;6.78;1.70;;;11.60;60.10;;;;;;4862408;29;20046;-74
2023/02/10 04:40:24;;;;;;;13.38;2.38;;;11.50;60.20;;;;;;4862367;29;20057;-73
2023/02/10 04:42:50;;;;;;;8.13;1.95;;;11.60;60.60;;;;;;4862467;29;20046;-75
2023/02/10 04:45:15;;;;;;;7.32;2.22;;;11.70;60.60;;;;;;4862939;29;20049;-75
2023/02/10 04:47:41;;;;;;;4.85;1.70;;;11.90;60.60;;;;;;4861631;29;20353;-76
2023/02/10 04:50:07;;;;;;;12.70;1.83;;;12.10;60.40;;;;;;4862540;29;20072;-75
2023/02/10 04:52:33;;;;;;;9.70;1.67;;;12.20;60.20;;;;;;4846252;29;20065;-73
2023/02/10 04:54:58;;;;;;;7.72;1.67;;;12.40;60.10;;;;;;4846128;29;20088;-74
2023/02/10 04:57:24;;;;;;;7.75;1.70;;;12.30;60.10;;;;;;4861569;29;20086;-75
2023/02/10 04:59:50;;;;;;;15.82;2.47;;;12.40;60.40;;;;;;4861850;29;20150;-74
2023/02/10 05:02:15;;;;;;;16.90;3.22;;;12.60;60.50;;;;;;4862303;29;20061;-74
2023/02/10 05:04:41;;;;;;;22.48;3.17;;;12.70;60.60;;;;;;4861410;29;20064;-77
2023/02/10 05:07:07;;;;;;;22.58;3.05;;;12.80;60.60;;;;;;4862287;29;20464;-74
2023/02/10 05:09:33;;;;;;;17.35;3.22;;;12.90;60.80;;;;;;4862337;29;20354;-74
2023/02/10 05:11:58;;;;;;;21.50;2.92;;;13.00;60.90;;;;;;4862308;29;20050;-73
2023/02/10 05:14:24;;;;;;;21.73;2.95;;;13.10;61.10;;;;;;4848401;29;20045;-75
2023/02/10 05:16:50;;;;;;;14.05;2.72;;;13.20;60.70;;;;;;4833549;29;20037;-74
2023/02/10 05:19:15;;;;;;;23.80;3.45;;;13.30;60.70;;;;;;4877650;29;20115;-76
2023/02/10 05:21:41;;;;;;;19.95;2.67;;;13.40;60.70;;;;;;4867833;29;20053;-73
2023/02/10 05:24:07;;;;;;;15.55;2.50;;;13.50;60.60;;;;;;4867663;29;20464;-78
2023/02/10 05:26:32;;;;;;;22.60;2.75;;;13.60;60.40;;;;;;4884105;29;20049;-75
2023/02/10 05:28:58;;;;;;;12.18;2.78;;;13.70;60.30;;;;;;4883999;29;20373;-74
2023/02/10 05:31:24;;;;;;;12.10;2.72;;;13.60;58.70;;;;;;4884113;29;20354;-73
2023/02/10 05:33:50;;;;;;;9.98;2.65;;;13.60;60.00;;;;;;4873212;29;20420;-74
2023/02/10 05:36:15;;;;;;;12.50;2.78;;;13.70;60.10;;;;;;4902424;29;20119;-75
2023/02/10 05:39:22;;;;;;;12.63;3.10;;;13.80;60.00;;;;;;4901939;29;20187;-74
2023/02/10 05:41:27;;;;;;;16.60;3.15;;;13.90;60.50;;;;;;4903128;29;20056;-77
2023/02/10 05:43:52;;;;;;;9.73;2.42;;;13.90;59.70;;;;;;4901847;29;20058;-75
2023/02/10 05:46:18;;;;;;;13.32;3.55;;;14.10;59.70;;;;;;4901240;29;20465;-80
2023/02/10 05:48:45;;;;;;;14.70;3.08;;;14.10;59.40;;;;;;4902165;29;20055;-72
2023/02/10 05:51:11;;;;;;;16.02;3.45;;;14.10;59.40;;;;;;4886241;29;20048;-70
2023/02/10 05:53:36;;;;;;;15.55;3.28;;;14.20;59.20;;;;;;4885721;29;20128;-76
2023/02/10 05:56:02;;;;;;;16.80;3.25;;;14.00;58.20;;;;;;4902285;29;20131;-74
2023/02/10 05:58:32;;;;;;;10.48;3.83;;;14.10;59.60;;;;;;4902445;29;20092;-75
2023/02/10 06:00:58;;;;;;;12.60;3.05;;;14.10;59.80;;;;;;4902237;29;20056;-75
2023/02/10 06:03:24;;;;;;;7.13;2.22;;;14.20;59.80;;;;;;4885474;29;20491;-76
2023/02/10 06:05:50;;;;;;;16.63;3.72;;;14.30;59.80;;;;;;4901693;29;20048;-74
2023/02/10 06:08:16;;;;;;;15.07;3.72;;;14.40;59.70;;;;;;4901833;29;20048;-76
2023/02/10 06:10:42;;;;;;;16.92;3.15;;;14.40;59.70;;;;;;4901866;29;20179;-73
2023/02/10 06:13:08;;;;;;;12.00;2.67;;;14.50;59.60;;;;;;4885362;29;20070;-73
2023/02/10 06:15:33;;;;;;;15.85;3.28;;;14.60;59.40;;;;;;4882311;29;20448;-75
2023/02/10 06:17:59;;;;;;;11.98;3.03;;;14.60;59.50;;;;;;4882998;29;20065;-72
2023/02/10 06:20:25;;;;;;;9.98;2.97;;;14.60;59.20;;;;;;4882904;29;20360;-72
2023/02/10 06:22:50;;;;;;;17.35;3.30;;;14.60;59.50;;;;;;4882812;29;20144;-71
2023/02/10 06:25:16;;;;;;;14.35;2.58;;;14.70;59.90;;;;;;4882636;29;20148;-71
2023/02/10 06:27:42;;;;;;;15.50;3.17;;;14.70;59.50;;;;;;4866322;29;20053;-74
2023/02/10 06:30:08;;;;;;;13.75;3.08;;;14.70;59.10;;;;;;4883022;29;20066;-73
2023/02/10 06:32:34;;;;;;;24.52;3.38;;;14.70;58.40;;;;;;4882636;29;20087;-72
2023/02/10 06:35:00;;;;;;;12.13;3.03;;;14.70;57.70;;;;;;4882251;29;20088;-72
2023/02/10 06:37:25;;;;;;;12.00;2.58;;;14.60;58.50;;;;;;4882791;29;20431;-74
2023/02/10 06:39:51;;;;;;;16.15;2.75;;;14.60;58.90;;;;;;4882812;29;20141;-73
2023/02/10 06:42:17;;;;;;;22.27;3.38;;;14.50;58.60;;;;;;4882604;29;20044;-73
2023/02/10 06:44:43;;;;;;;18.55;3.85;;;14.40;59.00;;;;;;4882102;29;20076;-72
2023/02/10 06:47:08;;;;;;;17.17;3.33;;;14.10;57.40;;;;;;4882029;29;20116;-72
2023/02/10 06:49:47;;;;;;;15.48;2.83;;;14.10;59.40;;;;;;4865469;29;20101;-77
2023/02/10 06:52:14;;;;;;;17.48;3.95;;;14.10;60.00;;;;;;4865054;29;20049;-71
2023/02/10 06:54:39;;;;;;;15.73;3.58;;;14.10;59.50;;;;;;4881573;29;20048;-75
2023/02/10 06:57:05;;;;;;;18.58;3.30;;;14.10;58.40;;;;;;4866529;29;20065;-71
2023/02/10 06:59:32;;;;;;;16.20;3.30;;;14.10;57.50;;;;;;4881173;29;20045;-70
2023/02/10 07:02:00;;;;;;;17.17;4.03;;;14.10;57.20;;;;;;4878652;29;20049;-72
2023/02/10 07:04:28;;;;;;;18.55;3.92;;;14.00;57.10;;;;;;4880572;29;20132;-71
2023/02/10 07:06:54;;;;;;;20.95;4.22;;;14.00;56.80;;;;;;4880765;29;20053;-73
2023/02/10 07:09:20;;;;;;;29.80;4.97;;;14.00;57.20;;;;;;4881103;29;20092;-72
2023/02/10 07:11:46;;;;;;;33.70;5.35;;;14.00;57.30;;;;;;4873640;29;20080;-72
2023/02/10 07:14:12;;;;;;;34.85;6.75;;;13.90;57.50;;;;;;4901325;29;20131;-73
2023/02/10 07:16:38;;;;;;;33.20;5.35;;;13.80;58.10;;;;;;4879616;29;20128;-73
2023/02/10 07:19:06;;;;;;;32.35;5.07;;;13.80;58.30;;;;;;4896120;29;20048;-75
2023/02/10 07:21:32;;;;;;;24.13;4.00;;;13.80;58.40;;;;;;4879114;29;20412;-74
2023/02/10 07:24:00;;;;;;;20.40;3.50;;;13.70;58.40;;;;;;4881250;29;20080;-72
2023/02/10 07:26:26;;;;;;;15.00;3.63;;;13.70;58.40;;;;;;4881221;29;20041;-78
2023/02/10 07:28:51;;;;;;;22.08;5.18;;;13.70;58.50;;;;;;4881170;29;20113;-74
2023/02/10 07:31:17;;;;;;;25.38;5.18;;;13.70;58.50;;;;;;4881173;29;20464;-75
2023/02/10 07:33:43;;;;;;;20.85;4.60;;;13.70;58.50;;;;;;4879703;29;20064;-75
2023/02/10 07:36:09;;;;;;;13.90;2.92;;;13.70;58.70;;;;;;4865605;29;20068;-74
2023/02/10 07:38:35;;;;;;;13.82;3.28;;;13.70;58.80;;;;;;4880824;29;20377;-75
2023/02/10 07:41:01;;;;;;;18.85;2.83;;;13.70;58.90;;;;;;4880729;29;20060;-75
2023/02/10 07:43:27;;;;;;;13.90;2.90;;;13.70;59.10;;;;;;4880797;29;20049;-77
2023/02/10 07:45:53;;;;;;;15.73;2.75;;;13.70;59.20;;;;;;4880101;29;20037;-75
2023/02/10 07:48:18;;;;;;;14.27;3.45;;;13.60;59.10;;;;;;4886671;29;20159;-74
2023/02/10 07:50:47;;;;;;;10.27;2.55;;;13.70;59.20;;;;;;4885289;29;20049;-75
2023/02/10 07:53:13;;;;;;;19.35;3.00;;;13.70;59.50;;;;;;4880738;29;20457;-74
2023/02/10 07:55:39;;;;;;;16.10;3.65;;;13.80;59.70;;;;;;4880768;29;20052;-73
2023/02/10 07:58:06;;;;;;;14.55;2.83;;;13.90;60.00;;;;;;4872015;29;20059;-75
2023/02/10 08:00:33;;;;;;;16.75;3.15;;;14.10;60.30;;;;;;4881233;29;20063;-74
2023/02/10 08:02:59;;;;;;;13.38;2.15;;;14.20;60.30;;;;;;4881322;29;20049;-74
2023/02/10 08:05:26;;;;;;;15.18;2.25;;;14.30;60.30;;;;;;4873246;29;20056;-72
2023/02/10 08:07:52;;;;;;;14.55;2.97;;;14.30;60.30;;;;;;4881144;29;20468;-73
2023/02/10 08:10:18;;;;;;;13.55;1.85;;;14.50;60.50;;;;;;4881931;29;20053;-74
2023/02/10 08:12:46;;;;;;;13.10;2.28;;;14.50;60.30;;;;;;4881400;29;20049;-74
2023/02/10 08:15:12;;;;;;;9.27;1.88;;;14.60;60.10;;;;;;4881122;29;20052;-73
2023/02/10 08:17:38;;;;;;;8.63;1.40;;;14.60;60.00;;;;;;4866033;29;20044;-75
2023/02/10 08:20:08;;;;;;;13.60;2.00;;;14.60;59.80;;;;;;4880991;29;20495;-73
2023/02/10 08:22:34;;;;;;;8.43;1.67;;;14.70;59.50;;;;;;4880852;29;20130;-73
2023/02/10 08:25:00;;;;;;;8.85;1.75;;;14.70;59.70;;;;;;4871843;29;20096;-73
2023/02/10 08:27:28;;;;;;;10.73;2.38;;;14.80;59.40;;;;;;4880850;29;20045;-72
2023/02/10 08:29:54;;;;;;;11.73;1.67;;;14.80;59.40;;;;;;4877790;29;20060;-73
2023/02/10 08:32:21;;;;;;;7.68;1.33;;;14.90;59.60;;;;;;4882328;29;20456;-74
2023/02/10 08:34:48;;;;;;;8.52;1.58;;;14.80;59.50;;;;;;4880500;29;20108;-75
2023/02/10 08:37:15;;;;;;;9.73;1.38;;;14.90;59.50;;;;;;4881027;29;20049;-77
2023/02/10 08:39:40;;;;;;;4.97;1.17;;;14.90;59.30;;;;;;4880902;29;20123;-75
2023/02/10 08:42:06;;;;;;;6.90;1.30;;;14.80;59.20;;;;;;4880877;29;20132;-73
2023/02/10 08:44:33;;;;;;;7.38;1.88;;;14.80;59.10;;;;;;4881106;29;20049;-72
2023/02/10 08:46:59;;;;;;;9.18;1.52;;;14.80;59.10;;;;;;4880072;29;20388;-74
2023/02/10 08:49:25;;;;;;;14.88;1.17;;;14.80;59.20;;;;;;4883538;29;20068;-72
2023/02/10 08:51:54;;;;;;;6.10;1.20;;;14.80;59.40;;;;;;4868308;29;20053;-72
2023/02/10 08:54:20;;;;;;;6.97;1.73;;;14.80;59.30;;;;;;4884225;29;20048;-73
2023/02/10 08:56:46;;;;;;;10.18;1.05;;;14.70;59.50;;;;;;4883721;29;20192;-73
2023/02/10 08:59:12;;;;;;;6.15;1.42;;;14.60;59.30;;;;;;4867276;29;20053;-74
2023/02/10 09:01:38;;;;;;;5.18;0.90;;;14.60;59.30;;;;;;4867616;29;20076;-73
2023/02/10 09:04:04;;;;;;;6.80;1.10;;;14.60;60.00;;;;;;4883929;29;20044;-73
2023/02/10 09:06:38;;;;;;;5.28;1.15;;;14.50;59.40;;;;;;4884237;29;20053;-78
2023/02/10 09:09:06;;;;;;;3.63;0.70;;;14.50;59.30;;;;;;4884073;29;20188;-75
2023/02/10 09:11:32;;;;;;;6.13;0.95;;;14.40;59.30;;;;;;4884015;29;20140;-80
2023/02/10 09:14:01;;;;;;;3.63;1.00;;;14.40;59.30;;;;;;4865534;29;20038;-77
2023/02/10 09:16:27;;;;;;;4.00;0.80;;;14.40;59.50;;;;;;4865776;29;20104;-74
2023/02/10 09:18:53;;;;;;;5.70;1.08;;;14.40;60.20;;;;;;4848965;29;20059;-74
2023/02/10 09:21:18;;;;;;;4.65;0.68;;;14.40;60.30;;;;;;4894050;29;20049;-74
2023/02/10 09:23:44;;;;;;;6.82;1.35;;;14.30;60.40;;;;;;4866755;29;20049;-72
2023/02/10 09:26:10;;;;;;;6.22;0.90;;;14.30;60.20;;;;;;4883720;29;20048;-72
2023/02/10 09:28:37;;;;;;;2.40;0.65;;;14.30;60.10;;;;;;4883210;29;20052;-74
2023/02/10 09:31:07;;;;;;;4.60;0.82;;;14.30;60.00;;;;;;4884002;29;20045;-74
2023/02/10 09:33:34;;;;;;;4.88;1.17;;;14.20;60.00;;;;;;4883780;29;20080;-74
2023/02/10 09:36:01;;;;;;;6.00;0.77;;;14.20;60.10;;;;;;4883251;29;20500;-73
2023/02/10 09:38:28;;;;;;;5.70;0.85;;;14.20;60.10;;;;;;4883586;29;20060;-76
2023/02/10 09:41:22;;;;;;;9.00;5.13;;;14.20;60.10;;;;;;4867104;29;20120;-73
2023/02/10 09:44:09;;;;;;;8.50;5.93;;;14.20;61.00;;;;;;4867555;29;20093;-73
2023/02/10 09:46:41;;;;;;;14.55;3.90;;;14.20;62.00;;;;;;4883218;29;20060;-74
2023/02/10 09:49:28;;;;;;;6.68;2.78;;;14.20;62.10;;;;;;4866974;29;20334;-72
2023/02/10 09:52:25;;;;;;;7.30;2.45;;;14.20;62.00;;;;;;4883226;29;20393;-73
2023/02/10 09:54:51;;;;;;;5.15;1.98;;;14.20;61.60;;;;;;4860267;29;20071;-73
2023/02/10 09:57:41;;;;;;;4.32;1.67;;;14.20;61.40;;;;;;4883515;29;20132;-72
2023/02/10 10:00:18;;;;;;;6.47;1.25;;;14.20;61.40;;;;;;4866629;29;20049;-73
2023/02/10 10:02:49;;;;;;;4.82;1.20;;;14.20;61.50;;;;;;4883193;29;20048;-72
2023/02/10 10:05:38;;;;;;;3.70;1.35;;;14.20;61.20;;;;;;4897171;29;20128;-75
2023/02/10 10:08:11;;;;;;;2.65;0.90;;;14.20;61.90;;;;;;4893325;29;20060;-74
2023/02/10 10:10:45;;;;;;;3.78;1.10;;;14.20;61.80;;;;;;4882491;29;20421;-77
2023/02/10 10:13:18;;;;;;;13.50;1.42;;;14.20;62.00;;;;;;4882961;29;20052;-75
2023/02/10 10:16:01;;;;;;;7.38;1.40;;;14.20;62.30;;;;;;4883530;29;20119;-76
2023/02/10 10:18:47;;;;;;;10.45;1.60;;;14.20;62.50;;;;;;4880613;29;20071;-76
2023/02/10 10:21:22;;;;;;;6.93;1.70;;;14.20;62.50;;;;;;4882738;29;20404;-74
2023/02/10 10:24:06;;;;;;;15.05;2.30;;;14.20;62.70;;;;;;4847777;29;20088;-75
2023/02/10 10:27:04;;;;;;;14.65;1.98;;;14.20;62.60;;;;;;4863516;29;20473;-76
2023/02/10 10:29:41;;;;;;;11.90;2.15;;;14.20;62.50;;;;;;4881731;29;20420;-73
2023/02/10 10:32:13;;;;;;;8.90;1.50;;;14.20;62.30;;;;;;4866416;29;20356;-73
2023/02/10 10:34:42;;;;;;;9.88;1.90;;;14.20;62.10;;;;;;4866133;29;20529;-76
2023/02/10 10:37:20;;;;;;;8.63;1.38;;;14.20;62.10;;;;;;4882298;29;20099;-75
2023/02/10 10:40:18;;;;;;;9.23;1.60;;;14.20;62.00;;;;;;4882643;29;20540;-74
2023/02/10 10:42:50;;;;;;;11.60;2.20;;;14.20;61.90;;;;;;4880370;29;20489;-75
2023/02/10 10:45:24;;;;;;;5.45;1.50;;;14.20;61.70;;;;;;4883005;29;20353;-74
2023/02/10 10:47:58;;;;;;;6.32;2.00;;;14.20;61.60;;;;;;4865758;29;20053;-75
2023/02/10 10:50:24;;;;;;;6.70;1.98;;;14.10;61.50;;;;;;4882471;29;20052;-75
2023/02/10 10:52:53;;;;;;;8.85;1.90;;;14.10;61.40;;;;;;4882358;29;20053;-76
2023/02/10 10:55:43;;;;;;;8.75;1.80;;;14.10;61.40;;;;;;4882703;29;20409;-72
2023/02/10 10:58:27;;;;;;;9.15;1.88;;;14.10;61.20;;;;;;4882015;29;20064;-74
2023/02/10 11:00:56;;;;;;;10.07;1.80;;;14.10;61.40;;;;;;4864416;29;20063;-74
2023/02/10 11:03:22;;;;;;;10.60;1.75;;;14.10;61.60;;;;;;4887124;29;20059;-73
2023/02/10 11:06:06;;;;;;;5.72;1.52;;;14.10;61.60;;;;;;4890781;29;20452;-74
2023/02/10 11:08:38;;;;;;;8.75;1.75;;;14.10;61.60;;;;;;4873993;29;20052;-73
2023/02/10 11:11:09;;;;;;;13.00;1.88;;;14.10;61.50;;;;;;4873259;29;20165;-72
2023/02/10 11:13:39;;;;;;;5.40;1.20;;;14.10;61.50;;;;;;4873419;29;20377;-76
2023/02/10 11:16:10;;;;;;;4.55;1.33;;;14.10;61.50;;;;;;4891097;29;20041;-78
2023/02/10 11:18:36;;;;;;;6.25;1.25;;;14.10;61.50;;;;;;4883086;29;20120;-74
2023/02/10 11:21:08;;;;;;;6.07;1.48;;;14.10;61.40;;;;;;4880961;29;20037;-76
2023/02/10 11:23:47;;;;;;;6.43;1.40;;;14.10;61.40;;;;;;4880739;29;20048;-74
2023/02/10 11:26:23;;;;;;;7.10;1.05;;;14.10;61.50;;;;;;4886266;29;20462;-76
2023/02/10 11:28:50;;;;;;;5.15;0.98;;;14.10;61.50;;;;;;4889109;29;20041;-75
2023/02/10 11:31:44;;;;;;;7.13;1.35;;;14.00;61.40;;;;;;4881234;29;20513;-76
2023/02/10 11:34:37;;;;;;;3.97;0.90;;;14.10;61.40;;;;;;4863968;29;20125;-78
2023/02/10 11:37:13;;;;;;;3.67;1.15;;;14.00;61.40;;;;;;4879906;29;20377;-77
2023/02/10 11:39:43;;;;;;;3.78;0.90;;;14.00;61.30;;;;;;4866947;29;20052;-77
2023/02/10 11:42:10;;;;;;;4.88;0.47;;;14.10;61.30;;;;;;4880791;29;20059;-74
2023/02/10 11:44:36;;;;;;;2.35;0.60;;;14.00;61.20;;;;;;4879103;29;20373;-75
2023/02/10 11:47:12;;;;;;;4.82;0.95;;;14.00;61.20;;;;;;4863698;29;20053;-77
2023/02/10 11:49:44;;;;;;;4.93;0.70;;;14.00;61.20;;;;;;4861863;29;20044;-74
2023/02/10 11:52:10;;;;;;;4.22;1.38;;;14.00;61.20;;;;;;4864235;29;20067;-76
2023/02/10 11:54:37;;;;;;;7.60;1.13;;;14.00;61.30;;;;;;4880339;29;20124;-76
2023/02/10 12:00:31;;;;;;;3.65;1.17;;;14.00;61.50;;;;;;4880215;29;20064;-74
2023/02/10 12:06:45;;;;;;;7.03;1.10;;;14.00;61.50;;;;;;4863114;29;20065;-74
2023/02/10 12:09:34;;;;;;;4.68;0.50;;;14.00;61.40;;;;;;4862591;29;20053;-78
2023/02/10 12:12:48;;;;;;;;;;;;;;;;;;;;;
2023/02/10 12:15:36;;;;;;;3.33;0.20;;;14.00;61.30;;;;;;4858355;29;20045;-76
2023/02/10 12:18:34;;;;;;;2.88;0.45;;;14.00;61.20;;;;;;4877183;29;20069;-77
2023/02/10 12:21:26;;;;;;;6.68;0.80;;;13.90;61.30;;;;;;4856165;29;20504;-76
2023/02/10 12:24:03;;;;;;;9.68;1.05;;;14.00;61.40;;;;;;4884309;29;20528;-76
2023/02/10 12:27:01;;;;;;;3.75;0.70;;;14.00;61.40;;;;;;4885052;29;20112;-75
2023/02/10 12:32:40;;;;;;;2.42;0.60;;;14.00;61.20;;;;;;4833595;29;20163;-77
2023/02/10 12:35:21;;;;;;;4.85;0.55;;;14.00;61.10;;;;;;4866000;29;20045;-72
2023/02/10 12:38:06;;;;;;;3.00;0.70;;;14.00;61.20;;;;;;4884420;29;20045;-75
2023/02/10 12:41:05;;;;;;;6.78;0.93;;;14.00;61.30;;;;;;4883672;29;20516;-76
2023/02/10 12:43:56;;;;;;;4.38;0.82;;;14.00;61.20;;;;;;4884683;29;20041;-77
2023/02/10 12:46:45;;;;;;;9.13;2.20;;;14.00;60.90;;;;;;4883459;29;20342;-77
2023/02/10 12:49:19;;;;;;;8.75;2.33;;;13.90;60.10;;;;;;4884753;29;20368;-79
2023/02/10 12:52:06;;;;;;;10.32;2.25;;;13.90;59.60;;;;;;4875048;29;20429;-71
2023/02/10 12:54:36;;;;;;;9.60;2.20;;;13.80;59.00;;;;;;4883408;29;20053;-74
2023/02/10 12:57:16;;;;;;;8.57;2.03;;;13.80;59.20;;;;;;4884726;29;20049;-73
2023/02/10 12:59:59;;;;;;;10.48;1.75;;;13.80;59.40;;;;;;4884926;29;20493;-77
2023/02/10 13:02:56;;;;;;;8.20;1.85;;;13.80;59.40;;;;;;4883548;29;20369;-76
2023/02/10 13:05:38;;;;;;;11.93;1.88;;;13.80;59.60;;;;;;4866193;29;20377;-77
2023/02/10 13:08:09;;;;;;;15.07;1.88;;;13.80;59.70;;;;;;4883950;29;20380;-73
2023/02/10 13:10:44;;;;;;;11.10;1.77;;;13.80;59.90;;;;;;4884296;29;20045;-76
2023/02/10 13:13:29;;;;;;;9.32;1.65;;;13.80;60.10;;;;;;4884044;29;20123;-73
2023/02/10 13:16:07;;;;;;;7.13;1.90;;;13.80;60.10;;;;;;4867180;29;20075;-74
2023/02/10 13:18:48;;;;;;;10.48;1.67;;;13.80;60.30;;;;;;4884271;29;20056;-78
2023/02/10 13:21:43;;;;;;;12.60;2.08;;;13.80;60.60;;;;;;4867288;29;20085;-74
2023/02/10 13:24:15;;;;;;;11.05;1.88;;;13.90;60.90;;;;;;4884394;29;20429;-76
2023/02/10 13:27:03;;;;;;;6.22;0.98;;;14.10;60.80;;;;;;4883586;29;20049;-74
2023/02/10 13:29:40;;;;;;;7.47;1.02;;;14.20;60.80;;;;;;4883489;29;20088;-75
2023/02/10 13:32:29;;;;;;;7.82;1.42;;;14.30;61.30;;;;;;4883664;29;20107;-75
2023/02/10 13:34:58;;;;;;;16.52;1.90;;;14.50;60.70;;;;;;4883016;29;20065;-73
2023/02/10 13:37:55;;;;;;;10.20;2.15;;;14.50;60.60;;;;;;4883777;29;20369;-75
2023/02/10 13:40:25;;;;;;;16.20;1.90;;;14.60;60.50;;;;;;4866858;29;20080;-74
2023/02/10 13:43:36;;;;;;;11.85;2.65;;;14.70;60.50;;;;;;4866857;29;20117;-75
2023/02/10 13:46:29;;;;;;;28.67;2.67;;;14.80;60.60;;;;;;4881512;29;20057;-76
2023/02/10 13:48:58;;;;;;;24.52;3.03;;;14.90;61.40;;;;;;4878625;29;20075;-78
2023/02/10 13:51:38;;;;;;;23.08;3.05;;;14.90;60.60;;;;;;4883126;29;20037;-79
2023/02/10 13:54:04;;;;;;;30.58;4.50;;;15.00;60.80;;;;;;4894671;29;20044;-76
2023/02/10 13:56:33;;;;;;;27.60;4.50;;;15.00;60.80;;;;;;4882300;29;20045;-79
2023/02/10 13:59:16;;;;;;;27.33;4.13;;;15.10;60.90;;;;;;4866673;29;20368;-76
2023/02/10 14:02:00;;;;;;;26.70;4.15;;;15.10;61.20;;;;;;4866581;29;20053;-77
2023/02/10 14:04:41;;;;;;;31.48;4.32;;;15.10;63.90;;;;;;4882961;29;20041;-78
2023/02/10 14:07:34;;;;;;;25.60;4.15;;;15.10;63.10;;;;;;4882841;29;20157;-79
2023/02/10 14:10:06;;;;;;;31.63;4.40;;;15.20;63.90;;;;;;4845918;29;20404;-78
2023/02/10 14:12:33;;;;;;;31.83;4.15;;;15.30;63.80;;;;;;4874520;29;20045;-77
2023/02/10 14:15:25;;;;;;;33.75;4.97;;;15.30;65.30;;;;;;4866001;29;20513;-77
2023/02/10 14:18:02;;;;;;;36.65;4.93;;;15.40;64.20;;;;;;4882785;29;20049;-77
2023/02/10 14:20:33;;;;;;;30.13;5.45;;;15.50;64.90;;;;;;4882234;29;20052;-75
2023/02/10 14:23:00;;;;;;;26.67;4.50;;;15.50;67.40;;;;;;4882638;29;20045;-76
2023/02/10 14:25:48;;;;;;;31.17;7.35;;;15.60;68.00;;;;;;4882666;29;20056;-76
2023/02/10 14:28:41;;;;;;;36.58;5.32;;;15.60;67.50;;;;;;4865675;29;20055;-80
2023/02/10 14:31:16;;;;;;;27.60;4.22;;;15.70;65.20;;;;;;4879321;29;20372;-77
2023/02/10 14:33:42;;;;;;;26.33;3.85;;;15.70;64.80;;;;;;4863827;29;20068;-76
2023/02/10 14:36:18;;;;;;;25.38;4.18;;;15.80;63.40;;;;;;4832548;29;20057;-75
2023/02/10 14:38:50;;;;;;;17.63;3.72;;;15.80;61.40;;;;;;4864265;29;20050;-78
2023/02/10 14:41:16;;;;;;;19.88;3.85;;;15.90;60.30;;;;;;4876490;29;20101;-75
2023/02/10 14:43:42;;;;;;;19.65;3.03;;;15.90;59.60;;;;;;4882412;29;20406;-76
2023/02/10 14:46:17;;;;;;;16.48;3.17;;;16.00;59.30;;;;;;4881481;29;20049;-75
2023/02/10 14:48:43;;;;;;;17.13;3.75;;;16.00;59.70;;;;;;4866079;29;20075;-77
2023/02/10 14:51:24;;;;;;;12.50;2.88;;;16.20;60.00;;;;;;4882275;29;20467;-75
2023/02/10 14:53:50;;;;;;;12.30;2.60;;;16.20;60.60;;;;;;4863793;29;20454;-75
2023/02/10 14:56:27;;;;;;;17.77;3.15;;;16.20;61.00;;;;;;4863946;29;20053;-75
2023/02/10 14:58:53;;;;;;;13.75;2.58;;;16.20;61.30;;;;;;4863974;29;20091;-75
2023/02/10 15:01:28;;;;;;;16.13;3.72;;;16.20;61.50;;;;;;4880014;29;20470;-76
2023/02/10 15:03:57;;;;;;;26.17;3.70;;;16.20;61.70;;;;;;4863963;29;20355;-76
2023/02/10 15:06:27;;;;;;;19.73;3.28;;;16.20;62.10;;;;;;4863496;29;20058;-74
2023/02/10 15:09:11;;;;;;;16.85;3.25;;;16.20;62.20;;;;;;4874462;29;20054;-75
2023/02/10 15:14:31;;;;;;;27.05;3.65;;;16.20;62.30;;;;;;4881297;29;20360;-75
2023/02/10 15:17:00;;;;;;;32.35;3.65;;;16.20;62.40;;;;;;4881638;29;20049;-76
2023/02/10 15:19:26;;;;;;;31.33;3.80;;;16.20;62.50;;;;;;4882117;29;20424;-77
2023/02/10 15:21:52;;;;;;;23.83;4.28;;;16.10;62.40;;;;;;4881920;29;20061;-75
2023/02/10 15:24:23;;;;;;;25.80;3.92;;;16.20;62.40;;;;;;4881889;29;20045;-77
2023/02/10 15:26:48;;;;;;;29.00;4.45;;;16.10;62.30;;;;;;4880922;29;20052;-76
2023/02/10 15:29:16;;;;;;;23.42;4.82;;;16.10;62.30;;;;;;4881553;29;20157;-77
2023/02/10 15:31:52;;;;;;;23.45;4.57;;;16.20;62.10;;;;;;4881976;29;20159;-76
2023/02/10 15:34:29;;;;;;;21.75;3.35;;;16.10;61.60;;;;;;4881808;29;20139;-75
2023/02/10 15:37:00;;;;;;;19.52;3.47;;;16.20;61.10;;;;;;4865255;29;20131;-77
2023/02/10 15:39:39;;;;;;;24.30;4.25;;;16.20;60.70;;;;;;4880724;29;20119;-79
2023/02/10 15:42:21;;;;;;;28.50;3.95;;;16.20;60.10;;;;;;4865208;29;20136;-77
2023/02/10 15:44:58;;;;;;;25.90;4.25;;;16.20;59.70;;;;;;4881244;29;20471;-78
2023/02/10 15:47:27;;;;;;;31.90;4.97;;;16.20;60.10;;;;;;4880989;29;20049;-75
2023/02/10 15:49:58;;;;;;;33.03;4.10;;;16.20;60.30;;;;;;4880764;29;20045;-75
2023/02/10 15:52:38;;;;;;;31.92;4.45;;;16.20;60.70;;;;;;4881474;29;20072;-76
2023/02/10 15:55:14;;;;;;;34.28;4.78;;;16.20;61.00;;;;;;4880786;29;20473;-76
2023/02/10 15:57:49;;;;;;;21.88;3.53;;;16.20;61.20;;;;;;4880525;29;20063;-80
2023/02/10 16:00:35;;;;;;;11.90;2.78;;;16.20;58.50;;;;;;4893581;29;20037;-75
2023/02/10 16:03:03;;;;;;;14.15;3.03;;;16.10;52.90;;;;;;4881431;29;20151;-78
2023/02/10 16:05:29;;;;;;;12.23;2.65;;;15.70;52.90;;;;;;4881247;29;20055;-75
2023/02/10 16:08:06;;;;;;;11.75;2.83;;;15.50;52.70;;;;;;4881046;29;20052;-73
2023/02/10 16:10:32;;;;;;;16.30;2.70;;;15.40;53.70;;;;;;4880919;29;20372;-73
2023/02/10 16:12:59;;;;;;;8.27;2.60;;;15.30;53.90;;;;;;4881058;29;20113;-76
2023/02/10 16:15:26;;;;;;;8.35;1.70;;;15.30;53.90;;;;;;4881317;29;20048;-76
2023/02/10 16:17:58;;;;;;;9.90;2.78;;;15.30;54.80;;;;;;4881125;29;20362;-74
2023/02/10 16:20:26;;;;;;;8.98;2.28;;;15.30;56.10;;;;;;4881193;29;20048;-76
2023/02/10 16:22:52;;;;;;;7.18;2.17;;;15.30;56.70;;;;;;4880507;29;20056;-78
2023/02/10 16:25:19;;;;;;;8.63;2.03;;;15.30;56.50;;;;;;4880622;29;20045;-75
2023/02/10 16:27:45;;;;;;;6.70;2.10;;;15.30;57.00;;;;;;4864186;29;20085;-75
2023/02/10 16:30:17;;;;;;;7.90;2.30;;;15.30;56.50;;;;;;4880971;29;20099;-76
2023/02/10 16:32:43;;;;;;;10.75;2.40;;;15.30;57.00;;;;;;4896143;29;20056;-74
2023/02/10 16:35:09;;;;;;;7.13;2.13;;;15.30;57.30;;;;;;4882930;29;20532;-77
2023/02/10 16:37:35;;;;;;;10.02;2.20;;;15.30;57.60;;;;;;4880556;29;20060;-77
2023/02/10 16:40:03;;;;;;;12.85;2.60;;;15.30;58.00;;;;;;4880687;29;20049;-77
2023/02/10 16:42:29;;;;;;;8.10;1.73;;;15.30;58.00;;;;;;4880864;29;20128;-77
2023/02/10 16:44:54;;;;;;;11.45;2.65;;;15.20;57.80;;;;;;4880849;29;20053;-77
2023/02/10 16:47:21;;;;;;;7.63;2.33;;;15.20;57.80;;;;;;4880687;29;20108;-76
2023/02/10 16:49:48;;;;;;;9.05;2.15;;;15.20;57.70;;;;;;4881136;29;20132;-77
2023/02/10 16:52:14;;;;;;;6.53;2.05;;;15.20;57.70;;;;;;4880515;29;20128;-74
2023/02/10 16:54:40;;;;;;;11.05;1.70;;;15.20;57.70;;;;;;4849357;29;20053;-77
2023/02/10 16:57:07;;;;;;;7.53;1.90;;;15.20;58.00;;;;;;4880238;29;20348;-79
2023/02/10 16:59:33;;;;;;;8.80;2.42;;;15.20;58.30;;;;;;4880044;29;20046;-77
2023/02/10 17:01:59;;;;;;;8.60;1.80;;;15.20;58.20;;;;;;4899742;29;20061;-75
2023/02/10 17:04:24;;;;;;;9.27;2.15;;;15.10;58.00;;;;;;4899637;29;20063;-76
2023/02/10 17:06:52;;;;;;;9.07;2.00;;;15.10;58.00;;;;;;4881200;29;20401;-76
2023/02/10 17:09:20;;;;;;;7.68;2.10;;;15.10;58.30;;;;;;4882078;29;20069;-75
2023/02/10 17:11:47;;;;;;;10.27;3.47;;;15.10;57.70;;;;;;4870613;29;20124;-77
2023/02/10 17:14:13;;;;;;;9.02;2.88;;;15.00;54.70;;;;;;4883663;29;20562;-76
2023/02/10 17:16:42;;;;;;;9.25;2.78;;;14.90;54.20;;;;;;4883134;29;20067;-77
2023/02/10 17:19:10;;;;;;;8.88;2.47;;;14.70;55.80;;;;;;4869497;29;20060;-77
2023/02/10 17:21:36;;;;;;;8.52;2.80;;;14.60;56.20;;;;;;4883545;29;20053;-75
2023/02/10 17:24:02;;;;;;;12.05;2.92;;;14.70;56.30;;;;;;4883253;29;20049;-77
2023/02/10 17:26:28;;;;;;;8.05;2.17;;;14.60;56.10;;;;;;4866907;29;20052;-77
2023/02/10 17:29:00;;;;;;;9.30;2.85;;;14.70;56.20;;;;;;4883424;29;20116;-79
2023/02/10 17:31:26;;;;;;;8.38;2.33;;;14.60;56.20;;;;;;4883143;29;20049;-75
2023/02/10 17:33:52;;;;;;;7.00;2.30;;;14.70;56.40;;;;;;4880421;29;20041;-78
2023/02/10 17:36:23;;;;;;;10.18;2.80;;;14.70;56.50;;;;;;4873875;29;20044;-80
2023/02/10 17:38:50;;;;;;;7.25;2.17;;;14.70;56.40;;;;;;4856676;29;20473;-73
2023/02/10 17:41:22;;;;;;;7.95;1.85;;;14.70;56.50;;;;;;4873666;29;20044;-75
2023/02/10 17:43:48;;;;;;;6.22;2.20;;;14.70;56.60;;;;;;4874878;29;20049;-76
2023/02/10 17:46:16;;;;;;;6.53;2.58;;;14.70;56.60;;;;;;4857195;29;20045;-76
2023/02/10 17:48:42;;;;;;;9.02;2.70;;;14.70;56.70;;;;;;4873011;29;20049;-75
2023/02/10 17:51:14;;;;;;;9.75;2.50;;;14.70;57.00;;;;;;4858169;29;20491;-78